sensor_id;sensor_type;location;lat;lon;timestamp;pressure;altitude;pressure_sealevel;temperature;humidity
21824;BME280;11074;48.596;9.238;2023-07-20T00:01:24;98096.25;;;23.50;53.55
21824;BME280;11074;48.596;9.238;2023-07-20T00:03:49;98093.31;;;23.43;54.17
21824;BME280;11074;48.596;9.238;2023-07-20T00:06:24;98095.63;;;23.33;54.25
21824;BME280;11074;48.596;9.238;2023-07-20T00:09:00;98088.78;;;23.27;53.43
21824;BME280;11074;48.596;9.238;2023-07-20T00:11:27;98090.63;;;23.35;53.77
21824;BME280;11074;48.596;9.238;2023-07-20T00:13:53;98092.03;;;23.41;53.43
21824;BME280;11074;48.596;9.238;2023-07-20T00:16:19;98095.91;;;23.40;53.64
21824;BME280;11074;48.596;9.238;2023-07-20T00:18:44;98085.69;;;23.49;53.43
21824;BME280;11074;48.596;9.238;2023-07-20T00:21:10;98096.53;;;23.58;53.37
21824;BME280;11074;48.596;9.238;2023-07-20T00:23:36;98092.88;;;23.53;53.09
21824;BME280;11074;48.596;9.238;2023-07-20T00:26:01;98084.81;;;23.57;52.65
21824;BME280;11074;48.596;9.238;2023-07-20T00:28:27;98081.50;;;23.51;52.99
21824;BME280;11074;48.596;9.238;2023-07-20T00:30:53;98083.41;;;23.51;52.62
21824;BME280;11074;48.596;9.238;2023-07-20T00:33:19;98079.88;;;23.50;52.57
21824;BME280;11074;48.596;9.238;2023-07-20T00:35:45;98084.09;;;23.48;52.29
21824;BME280;11074;48.596;9.238;2023-07-20T00:38:11;98087.72;;;23.40;52.78
21824;BME280;11074;48.596;9.238;2023-07-20T00:40:41;98085.16;;;23.35;52.71
21824;BME280;11074;48.596;9.238;2023-07-20T00:43:07;98080.69;;;23.39;52.29
21824;BME280;11074;48.596;9.238;2023-07-20T00:45:34;98083.59;;;23.34;52.37
21824;BME280;11074;48.596;9.238;2023-07-20T00:48:01;98083.84;;;23.41;52.88
21824;BME280;11074;48.596;9.238;2023-07-20T00:50:31;98084.84;;;23.36;52.13
21824;BME280;11074;48.596;9.238;2023-07-20T00:52:58;98083.72;;;23.37;51.75
21824;BME280;11074;48.596;9.238;2023-07-20T00:55:25;98085.16;;;23.35;51.43
21824;BME280;11074;48.596;9.238;2023-07-20T00:57:52;98090.97;;;23.33;51.22
21824;BME280;11074;48.596;9.238;2023-07-20T01:00:18;98083.22;;;23.23;51.16
21824;BME280;11074;48.596;9.238;2023-07-20T01:02:45;98085.28;;;23.06;51.39
21824;BME280;11074;48.596;9.238;2023-07-20T01:05:11;98088.97;;;23.10;50.87
21824;BME280;11074;48.596;9.238;2023-07-20T01:07:58;98086.81;;;23.15;51.20
21824;BME280;11074;48.596;9.238;2023-07-20T01:10:52;98093.44;;;22.93;51.15
21824;BME280;11074;48.596;9.238;2023-07-20T01:13:21;98092.28;;;22.94;50.83
21824;BME280;11074;48.596;9.238;2023-07-20T01:15:56;98096.22;;;23.06;51.22
21824;BME280;11074;48.596;9.238;2023-07-20T01:18:21;98092.59;;;23.14;50.76
21824;BME280;11074;48.596;9.238;2023-07-20T01:20:47;98087.28;;;23.17;50.57
21824;BME280;11074;48.596;9.238;2023-07-20T01:32:17;98094.78;;;23.20;51.42
21824;BME280;11074;48.596;9.238;2023-07-20T01:34:46;98092.16;;;23.12;50.14
21824;BME280;11074;48.596;9.238;2023-07-20T01:37:15;98094.75;;;23.08;50.20
21824;BME280;11074;48.596;9.238;2023-07-20T01:39:42;98092.34;;;23.07;50.37
21824;BME280;11074;48.596;9.238;2023-07-20T01:42:08;98088.16;;;23.09;50.30
21824;BME280;11074;48.596;9.238;2023-07-20T01:44:34;98088.38;;;23.04;51.06
21824;BME280;11074;48.596;9.238;2023-07-20T01:46:59;98087.22;;;23.05;51.78
21824;BME280;11074;48.596;9.238;2023-07-20T01:49:25;98084.69;;;23.00;51.30
21824;BME280;11074;48.596;9.238;2023-07-20T01:51:51;98082.63;;;22.97;51.26
21824;BME280;11074;48.596;9.238;2023-07-20T01:54:16;98084.00;;;22.91;51.59
21824;BME280;11074;48.596;9.238;2023-07-20T01:56:43;98082.47;;;22.81;51.71
21824;BME280;11074;48.596;9.238;2023-07-20T01:59:09;98083.25;;;22.82;51.96
21824;BME280;11074;48.596;9.238;2023-07-20T02:01:35;98079.72;;;22.81;51.71
21824;BME280;11074;48.596;9.238;2023-07-20T02:04:00;98094.16;;;22.82;51.53
21824;BME280;11074;48.596;9.238;2023-07-20T02:06:26;98089.78;;;22.69;51.34
21824;BME280;11074;48.596;9.238;2023-07-20T02:08:52;98090.81;;;22.56;51.74
21824;BME280;11074;48.596;9.238;2023-07-20T02:11:18;98085.88;;;22.49;51.91
21824;BME280;11074;48.596;9.238;2023-07-20T02:13:44;98086.16;;;22.56;52.74
21824;BME280;11074;48.596;9.238;2023-07-20T02:16:09;98092.53;;;22.60;51.27
21824;BME280;11074;48.596;9.238;2023-07-20T02:18:36;98094.34;;;22.56;51.01
21824;BME280;11074;48.596;9.238;2023-07-20T02:21:02;98087.47;;;22.50;50.37
21824;BME280;11074;48.596;9.238;2023-07-20T02:23:28;98091.31;;;22.49;51.36
21824;BME280;11074;48.596;9.238;2023-07-20T02:25:54;98090.06;;;22.47;51.38
21824;BME280;11074;48.596;9.238;2023-07-20T02:28:19;98092.59;;;22.52;51.83
21824;BME280;11074;48.596;9.238;2023-07-20T02:30:45;98092.59;;;22.52;51.46
21824;BME280;11074;48.596;9.238;2023-07-20T02:33:11;98093.00;;;22.42;51.78
21824;BME280;11074;48.596;9.238;2023-07-20T02:35:37;98086.53;;;22.46;51.86
21824;BME280;11074;48.596;9.238;2023-07-20T02:38:02;98095.50;;;22.47;51.71
21824;BME280;11074;48.596;9.238;2023-07-20T02:40:28;98096.84;;;22.41;51.45
21824;BME280;11074;48.596;9.238;2023-07-20T02:42:54;98100.69;;;22.40;51.54
21824;BME280;11074;48.596;9.238;2023-07-20T02:45:20;98092.34;;;22.45;51.68
21824;BME280;11074;48.596;9.238;2023-07-20T02:47:45;98093.78;;;22.42;50.79
21824;BME280;11074;48.596;9.238;2023-07-20T02:50:11;98100.66;;;22.48;50.99
21824;BME280;11074;48.596;9.238;2023-07-20T02:52:39;98106.22;;;22.52;50.96
21824;BME280;11074;48.596;9.238;2023-07-20T02:55:05;98107.81;;;22.53;50.46
21824;BME280;11074;48.596;9.238;2023-07-20T02:57:31;98107.47;;;22.54;50.54
21824;BME280;11074;48.596;9.238;2023-07-20T02:59:56;98097.72;;;22.53;51.26
21824;BME280;11074;48.596;9.238;2023-07-20T03:02:22;98108.53;;;22.41;49.98
21824;BME280;11074;48.596;9.238;2023-07-20T03:04:47;98103.22;;;22.45;50.17
21824;BME280;11074;48.596;9.238;2023-07-20T03:07:13;98101.69;;;22.35;49.71
21824;BME280;11074;48.596;9.238;2023-07-20T03:09:39;98109.13;;;22.26;50.17
21824;BME280;11074;48.596;9.238;2023-07-20T03:12:05;98104.19;;;22.19;49.96
21824;BME280;11074;48.596;9.238;2023-07-20T03:14:31;98102.59;;;22.18;50.92
21824;BME280;11074;48.596;9.238;2023-07-20T03:16:57;98102.75;;;22.22;50.42
21824;BME280;11074;48.596;9.238;2023-07-20T03:19:22;98112.03;;;22.21;50.36
21824;BME280;11074;48.596;9.238;2023-07-20T03:21:48;98109.13;;;22.26;51.10
21824;BME280;11074;48.596;9.238;2023-07-20T03:24:14;98112.63;;;22.26;50.99
21824;BME280;11074;48.596;9.238;2023-07-20T03:26:40;98111.50;;;22.27;50.68
21824;BME280;11074;48.596;9.238;2023-07-20T03:29:05;98115.38;;;22.26;50.22
21824;BME280;11074;48.596;9.238;2023-07-20T03:31:32;98116.81;;;22.24;50.11
21824;BME280;11074;48.596;9.238;2023-07-20T03:33:57;98119.09;;;22.22;49.52
21824;BME280;11074;48.596;9.238;2023-07-20T03:36:23;98121.47;;;22.23;50.62
21824;BME280;11074;48.596;9.238;2023-07-20T03:38:49;98127.25;;;22.22;50.07
21824;BME280;11074;48.596;9.238;2023-07-20T03:41:15;98129.81;;;22.18;50.49
21824;BME280;11074;48.596;9.238;2023-07-20T03:43:41;98125.84;;;22.16;50.23
21824;BME280;11074;48.596;9.238;2023-07-20T03:46:07;98127.47;;;22.08;50.64
21824;BME280;11074;48.596;9.238;2023-07-20T03:48:34;98135.66;;;22.08;50.82
21824;BME280;11074;48.596;9.238;2023-07-20T03:51:00;98125.41;;;22.05;50.68
21824;BME280;11074;48.596;9.238;2023-07-20T03:53:26;98125.25;;;22.02;50.32
21824;BME280;11074;48.596;9.238;2023-07-20T03:55:53;98132.16;;;21.99;50.24
21824;BME280;11074;48.596;9.238;2023-07-20T03:58:20;98141.63;;;21.85;50.79
21824;BME280;11074;48.596;9.238;2023-07-20T04:00:51;98136.22;;;21.76;51.07
21824;BME280;11074;48.596;9.238;2023-07-20T04:03:21;98137.50;;;21.79;51.74
21824;BME280;11074;48.596;9.238;2023-07-20T04:05:48;98133.63;;;21.80;51.46
21824;BME280;11074;48.596;9.238;2023-07-20T04:08:14;98141.84;;;21.62;51.55
21824;BME280;11074;48.596;9.238;2023-07-20T04:10:43;98144.75;;;21.66;52.35
21824;BME280;11074;48.596;9.238;2023-07-20T04:13:09;98140.38;;;21.73;51.94
21824;BME280;11074;48.596;9.238;2023-07-20T04:15:34;98139.59;;;21.73;52.38
21824;BME280;11074;48.596;9.238;2023-07-20T04:18:00;98141.03;;;21.70;52.28
21824;BME280;11074;48.596;9.238;2023-07-20T04:20:27;98146.50;;;21.53;51.79
21824;BME280;11074;48.596;9.238;2023-07-20T04:22:53;98143.97;;;21.48;52.56
21824;BME280;11074;48.596;9.238;2023-07-20T04:25:19;98143.84;;;21.36;53.17
21824;BME280;11074;48.596;9.238;2023-07-20T04:27:45;98148.81;;;21.34;53.54
21824;BME280;11074;48.596;9.238;2023-07-20T04:30:12;98145.13;;;21.22;53.48
21824;BME280;11074;48.596;9.238;2023-07-20T04:32:39;98144.78;;;21.32;54.13
21824;BME280;11074;48.596;9.238;2023-07-20T04:35:47;98143.38;;;21.34;53.76
21824;BME280;11074;48.596;9.238;2023-07-20T04:38:14;98148.13;;;21.37;54.58
21824;BME280;11074;48.596;9.238;2023-07-20T04:40:48;98151.34;;;21.39;54.41
21824;BME280;11074;48.596;9.238;2023-07-20T04:43:17;98141.91;;;21.37;54.26
21824;BME280;11074;48.596;9.238;2023-07-20T04:45:43;98143.19;;;21.39;54.75
21824;BME280;11074;48.596;9.238;2023-07-20T04:48:13;98136.47;;;21.37;55.05
21824;BME280;11074;48.596;9.238;2023-07-20T04:50:45;98141.09;;;21.45;55.16
21824;BME280;11074;48.596;9.238;2023-07-20T04:53:14;98152.28;;;21.52;55.43
21824;BME280;11074;48.596;9.238;2023-07-20T04:55:40;98148.59;;;21.56;55.15
21824;BME280;11074;48.596;9.238;2023-07-20T04:58:07;98152.13;;;21.57;54.44
21824;BME280;11074;48.596;9.238;2023-07-20T05:00:33;98150.81;;;21.63;54.48
21824;BME280;11074;48.596;9.238;2023-07-20T05:02:59;98155.13;;;21.64;53.80
21824;BME280;11074;48.596;9.238;2023-07-20T05:05:25;98149.41;;;21.48;54.37
21824;BME280;11074;48.596;9.238;2023-07-20T05:07:51;98151.19;;;21.44;53.90
21824;BME280;11074;48.596;9.238;2023-07-20T05:10:17;98152.44;;;21.55;54.07
21824;BME280;11074;48.596;9.238;2023-07-20T05:12:43;98153.53;;;21.63;53.94
21824;BME280;11074;48.596;9.238;2023-07-20T05:15:10;98153.84;;;21.70;53.87
21824;BME280;11074;48.596;9.238;2023-07-20T05:17:38;98157.53;;;21.74;53.94
21824;BME280;11074;48.596;9.238;2023-07-20T05:20:08;98150.13;;;21.74;53.77
21824;BME280;11074;48.596;9.238;2023-07-20T05:22:38;98155.75;;;21.78;54.10
21824;BME280;11074;48.596;9.238;2023-07-20T05:25:08;98153.47;;;21.80;54.39
21824;BME280;11074;48.596;9.238;2023-07-20T05:27:37;98155.56;;;21.83;54.18
21824;BME280;11074;48.596;9.238;2023-07-20T05:30:04;98152.69;;;21.80;54.22
21824;BME280;11074;48.596;9.238;2023-07-20T05:32:30;98153.66;;;21.84;54.25
21824;BME280;11074;48.596;9.238;2023-07-20T05:34:56;98148.38;;;21.87;54.43
21824;BME280;11074;48.596;9.238;2023-07-20T05:37:22;98149.66;;;21.90;54.33
21824;BME280;11074;48.596;9.238;2023-07-20T05:39:48;98140.84;;;21.93;54.55
21824;BME280;11074;48.596;9.238;2023-07-20T05:42:13;98142.75;;;21.92;54.54
21824;BME280;11074;48.596;9.238;2023-07-20T05:44:40;98143.38;;;21.98;54.64
21824;BME280;11074;48.596;9.238;2023-07-20T05:47:06;98144.78;;;22.04;54.76
21824;BME280;11074;48.596;9.238;2023-07-20T05:49:32;98140.00;;;22.01;54.97
21824;BME280;11074;48.596;9.238;2023-07-20T05:51:58;98143.19;;;22.03;55.25
21824;BME280;11074;48.596;9.238;2023-07-20T05:54:25;98147.19;;;22.05;56.53
21824;BME280;11074;48.596;9.238;2023-07-20T05:56:52;98150.22;;;22.04;56.39
21824;BME280;11074;48.596;9.238;2023-07-20T05:59:19;98144.00;;;22.03;56.06
21824;BME280;11074;48.596;9.238;2023-07-20T06:01:46;98142.38;;;22.11;56.30
21824;BME280;11074;48.596;9.238;2023-07-20T06:04:14;98146.19;;;22.10;56.23
21824;BME280;11074;48.596;9.238;2023-07-20T06:06:40;98146.47;;;22.17;55.93
21824;BME280;11074;48.596;9.238;2023-07-20T06:09:06;98147.44;;;22.21;55.42
21824;BME280;11074;48.596;9.238;2023-07-20T06:11:35;98156.25;;;22.18;55.45
21824;BME280;11074;48.596;9.238;2023-07-20T06:14:01;98159.44;;;22.20;55.53
21824;BME280;11074;48.596;9.238;2023-07-20T06:16:27;98159.94;;;22.22;55.05
21824;BME280;11074;48.596;9.238;2023-07-20T06:18:53;98157.34;;;22.25;55.63
21824;BME280;11074;48.596;9.238;2023-07-20T06:21:18;98148.66;;;22.32;55.06
21824;BME280;11074;48.596;9.238;2023-07-20T06:23:44;98156.84;;;22.32;55.17
21824;BME280;11074;48.596;9.238;2023-07-20T06:26:09;98159.25;;;22.25;55.21
21824;BME280;11074;48.596;9.238;2023-07-20T06:28:36;98150.59;;;22.31;55.18
21824;BME280;11074;48.596;9.238;2023-07-20T06:31:03;98153.47;;;22.35;55.46
21824;BME280;11074;48.596;9.238;2023-07-20T06:33:29;98146.88;;;22.36;55.32
21824;BME280;11074;48.596;9.238;2023-07-20T06:35:56;98146.06;;;22.35;55.34
21824;BME280;11074;48.596;9.238;2023-07-20T06:38:22;98139.84;;;22.35;55.20
21824;BME280;11074;48.596;9.238;2023-07-20T06:40:50;98138.38;;;22.38;55.38
21824;BME280;11074;48.596;9.238;2023-07-20T06:43:16;98138.22;;;22.34;55.21
21824;BME280;11074;48.596;9.238;2023-07-20T06:45:42;98142.69;;;22.39;55.95
21824;BME280;11074;48.596;9.238;2023-07-20T06:48:08;98144.13;;;22.36;55.09
21824;BME280;11074;48.596;9.238;2023-07-20T06:50:34;98148.28;;;22.42;54.74
21824;BME280;11074;48.596;9.238;2023-07-20T06:53:00;98135.00;;;22.41;54.39
21824;BME280;11074;48.596;9.238;2023-07-20T06:55:28;98141.56;;;22.40;54.48
21824;BME280;11074;48.596;9.238;2023-07-20T06:57:54;98149.41;;;22.41;54.67
21824;BME280;11074;48.596;9.238;2023-07-20T07:00:20;98145.56;;;22.42;54.12
21824;BME280;11074;48.596;9.238;2023-07-20T07:02:46;98144.09;;;22.45;54.08
21824;BME280;11074;48.596;9.238;2023-07-20T07:05:11;98149.69;;;22.48;54.86
21824;BME280;11074;48.596;9.238;2023-07-20T07:07:38;98143.72;;;22.55;54.37
21824;BME280;11074;48.596;9.238;2023-07-20T07:10:05;98152.03;;;22.58;54.34
21824;BME280;11074;48.596;9.238;2023-07-20T07:12:31;98144.16;;;22.65;53.90
21824;BME280;11074;48.596;9.238;2023-07-20T07:14:57;98141.91;;;22.67;54.23
21824;BME280;11074;48.596;9.238;2023-07-20T07:17:24;98148.28;;;22.71;53.85
21824;BME280;11074;48.596;9.238;2023-07-20T07:19:51;98146.81;;;22.74;53.07
21824;BME280;11074;48.596;9.238;2023-07-20T07:22:19;98139.91;;;22.76;52.50
21824;BME280;11074;48.596;9.238;2023-07-20T07:24:44;98140.25;;;22.75;53.03
21824;BME280;11074;48.596;9.238;2023-07-20T07:27:11;98139.44;;;22.74;52.29
21824;BME280;11074;48.596;9.238;2023-07-20T07:29:36;98136.06;;;22.77;52.11
21824;BME280;11074;48.596;9.238;2023-07-20T07:32:02;98138.13;;;22.80;51.83
21824;BME280;11074;48.596;9.238;2023-07-20T07:34:28;98132.84;;;22.75;51.69
21824;BME280;11074;48.596;9.238;2023-07-20T07:36:54;98135.94;;;22.74;51.89
21824;BME280;11074;48.596;9.238;2023-07-20T07:39:19;98137.84;;;22.73;51.20
21824;BME280;11074;48.596;9.238;2023-07-20T07:41:45;98134.47;;;22.76;51.69
21824;BME280;11074;48.596;9.238;2023-07-20T07:44:11;98130.13;;;22.75;51.93
21824;BME280;11074;48.596;9.238;2023-07-20T07:46:37;98134.00;;;22.74;51.90
21824;BME280;11074;48.596;9.238;2023-07-20T07:49:02;98131.59;;;22.73;52.23
21824;BME280;11074;48.596;9.238;2023-07-20T07:51:29;98124.41;;;22.68;52.04
21824;BME280;11074;48.596;9.238;2023-07-20T07:53:55;98117.38;;;22.67;52.06
21824;BME280;11074;48.596;9.238;2023-07-20T07:56:20;98111.72;;;22.72;52.26
21824;BME280;11074;48.596;9.238;2023-07-20T07:58:49;98119.06;;;22.80;52.52
21824;BME280;11074;48.596;9.238;2023-07-20T08:01:17;98126.22;;;22.85;52.16
21824;BME280;11074;48.596;9.238;2023-07-20T08:03:45;98131.00;;;22.88;52.30
21824;BME280;11074;48.596;9.238;2023-07-20T08:06:13;98127.94;;;22.89;52.45
21824;BME280;11074;48.596;9.238;2023-07-20T08:08:39;98127.84;;;22.86;51.87
21824;BME280;11074;48.596;9.238;2023-07-20T08:11:05;98128.59;;;22.86;52.10
21824;BME280;11074;48.596;9.238;2023-07-20T08:13:31;98136.59;;;22.91;51.98
21824;BME280;11074;48.596;9.238;2023-07-20T08:15:57;98128.22;;;22.97;51.83
21824;BME280;11074;48.596;9.238;2023-07-20T08:18:23;98121.97;;;22.96;51.95
21824;BME280;11074;48.596;9.238;2023-07-20T08:20:49;98126.38;;;22.88;51.77
21824;BME280;11074;48.596;9.238;2023-07-20T08:23:15;98130.34;;;22.91;51.90
21824;BME280;11074;48.596;9.238;2023-07-20T08:25:41;98128.75;;;22.90;51.56
21824;BME280;11074;48.596;9.238;2023-07-20T08:28:15;98120.56;;;22.90;51.37
21824;BME280;11074;48.596;9.238;2023-07-20T08:30:46;98116.50;;;22.96;52.24
21824;BME280;11074;48.596;9.238;2023-07-20T08:33:17;98117.88;;;23.02;50.77
21824;BME280;11074;48.596;9.238;2023-07-20T08:35:47;98113.84;;;23.08;51.25
21824;BME280;11074;48.596;9.238;2023-07-20T08:38:13;98118.75;;;23.15;51.06
21824;BME280;11074;48.596;9.238;2023-07-20T08:40:45;98106.47;;;23.21;50.97
21824;BME280;11074;48.596;9.238;2023-07-20T08:43:12;98112.88;;;23.25;51.52
21824;BME280;11074;48.596;9.238;2023-07-20T08:45:41;98116.88;;;23.27;50.60
21824;BME280;11074;48.596;9.238;2023-07-20T08:48:08;98116.06;;;23.27;50.25
21824;BME280;11074;48.596;9.238;2023-07-20T08:50:35;98113.47;;;23.30;50.48
21824;BME280;11074;48.596;9.238;2023-07-20T08:53:02;98116.72;;;23.24;49.63
21824;BME280;11074;48.596;9.238;2023-07-20T08:55:30;98106.84;;;23.31;50.33
21824;BME280;11074;48.596;9.238;2023-07-20T08:57:58;98104.09;;;23.40;50.38
21824;BME280;11074;48.596;9.238;2023-07-20T09:00:25;98100.47;;;23.48;50.40
21824;BME280;11074;48.596;9.238;2023-07-20T09:02:53;98098.31;;;23.53;49.27
21824;BME280;11074;48.596;9.238;2023-07-20T09:05:22;98100.72;;;23.55;48.95
21824;BME280;11074;48.596;9.238;2023-07-20T09:07:48;98091.84;;;23.58;48.45
21824;BME280;11074;48.596;9.238;2023-07-20T09:10:14;98096.97;;;23.60;47.80
21824;BME280;11074;48.596;9.238;2023-07-20T09:12:43;98099.34;;;23.61;48.84
21824;BME280;11074;48.596;9.238;2023-07-20T09:15:11;98099.03;;;23.63;48.42
21824;BME280;11074;48.596;9.238;2023-07-20T09:17:37;98096.53;;;23.58;47.15
21824;BME280;11074;48.596;9.238;2023-07-20T09:20:08;98090.03;;;23.62;47.75
21824;BME280;11074;48.596;9.238;2023-07-20T09:22:38;98086.41;;;23.70;47.32
21824;BME280;11074;48.596;9.238;2023-07-20T09:25:19;98096.44;;;23.78;47.16
21824;BME280;11074;48.596;9.238;2023-07-20T09:27:47;98088.03;;;23.83;46.84
21824;BME280;11074;48.596;9.238;2023-07-20T09:30:15;98083.59;;;23.91;46.35
21824;BME280;11074;48.596;9.238;2023-07-20T09:32:49;98097.91;;;23.88;46.15
21824;BME280;11074;48.596;9.238;2023-07-20T09:35:23;98093.25;;;23.88;45.99
21824;BME280;11074;48.596;9.238;2023-07-20T09:37:58;98103.38;;;23.88;47.29
21824;BME280;11074;48.596;9.238;2023-07-20T09:40:25;98085.97;;;23.80;47.58
21824;BME280;11074;48.596;9.238;2023-07-20T09:42:53;98091.78;;;23.79;46.01
21824;BME280;11074;48.596;9.238;2023-07-20T09:45:43;98078.34;;;23.86;47.17
21824;BME280;11074;48.596;9.238;2023-07-20T09:48:11;98084.03;;;23.93;47.57
21824;BME280;11074;48.596;9.238;2023-07-20T09:50:42;98076.88;;;23.88;46.49
21824;BME280;11074;48.596;9.238;2023-07-20T09:53:11;98078.94;;;23.91;45.66
21824;BME280;11074;48.596;9.238;2023-07-20T09:55:40;98075.59;;;23.98;46.54
21824;BME280;11074;48.596;9.238;2023-07-20T09:58:09;98071.53;;;24.04;44.30
21824;BME280;11074;48.596;9.238;2023-07-20T10:00:37;98072.91;;;24.10;45.71
21824;BME280;11074;48.596;9.238;2023-07-20T10:03:05;98072.19;;;24.01;43.60
21824;BME280;11074;48.596;9.238;2023-07-20T10:05:39;98073.34;;;24.00;43.49
21824;BME280;11074;48.596;9.238;2023-07-20T10:08:08;98065.50;;;23.98;43.55
21824;BME280;11074;48.596;9.238;2023-07-20T10:10:38;98071.75;;;23.99;43.86
21824;BME280;11074;48.596;9.238;2023-07-20T10:13:11;98059.22;;;23.98;42.36
21824;BME280;11074;48.596;9.238;2023-07-20T10:15:54;98058.22;;;24.02;42.93
21824;BME280;11074;48.596;9.238;2023-07-20T10:21:17;98047.97;;;24.11;42.53
21824;BME280;11074;48.596;9.238;2023-07-20T10:23:43;98054.69;;;24.14;44.13
21824;BME280;11074;48.596;9.238;2023-07-20T10:26:10;98040.72;;;24.16;39.83
21824;BME280;11074;48.596;9.238;2023-07-20T10:28:38;98038.78;;;24.16;39.66
21824;BME280;11074;48.596;9.238;2023-07-20T10:31:03;98027.38;;;24.26;40.76
21824;BME280;11074;48.596;9.238;2023-07-20T10:33:30;98024.50;;;24.35;41.52
21824;BME280;11074;48.596;9.238;2023-07-20T10:36:00;98022.53;;;24.47;42.34
21824;BME280;11074;48.596;9.238;2023-07-20T10:41:21;98017.81;;;24.60;41.14
21824;BME280;11074;48.596;9.238;2023-07-20T10:43:49;98030.69;;;24.59;40.52
21824;BME280;11074;48.596;9.238;2023-07-20T10:49:06;98038.13;;;24.47;39.76
21824;BME280;11074;48.596;9.238;2023-07-20T10:52:05;98024.81;;;24.45;38.60
21824;BME280;11074;48.596;9.238;2023-07-20T10:54:33;98025.97;;;24.44;37.38
21824;BME280;11074;48.596;9.238;2023-07-20T10:57:29;98005.53;;;24.54;37.82
21824;BME280;11074;48.596;9.238;2023-07-20T11:00:29;98011.41;;;24.68;37.38
21824;BME280;11074;48.596;9.238;2023-07-20T11:02:58;98009.44;;;24.81;38.46
21824;BME280;11074;48.596;9.238;2023-07-20T11:05:38;98003.97;;;24.81;38.46
21824;BME280;11074;48.596;9.238;2023-07-20T11:08:10;98006.81;;;24.84;38.21
21824;BME280;11074;48.596;9.238;2023-07-20T11:10:36;98012.72;;;24.86;37.28
21824;BME280;11074;48.596;9.238;2023-07-20T11:13:24;98007.19;;;24.70;36.65
21824;BME280;11074;48.596;9.238;2023-07-20T11:18:25;98005.25;;;24.71;37.61
21824;BME280;11074;48.596;9.238;2023-07-20T11:20:53;97990.66;;;24.79;36.06
21824;BME280;11074;48.596;9.238;2023-07-20T11:23:20;98000.31;;;25.04;36.03
21824;BME280;11074;48.596;9.238;2023-07-20T11:25:46;98005.75;;;25.16;35.89
21824;BME280;11074;48.596;9.238;2023-07-20T11:28:12;97992.78;;;25.29;35.74
21824;BME280;11074;48.596;9.238;2023-07-20T11:30:38;97996.84;;;25.35;36.13
21824;BME280;11074;48.596;9.238;2023-07-20T11:33:11;97990.16;;;25.48;35.96
21824;BME280;11074;48.596;9.238;2023-07-20T11:35:44;97987.88;;;25.50;35.44
21824;BME280;11074;48.596;9.238;2023-07-20T11:38:13;97989.44;;;25.36;35.25
21824;BME280;11074;48.596;9.238;2023-07-20T11:40:46;97988.19;;;25.33;35.59
21824;BME280;11074;48.596;9.238;2023-07-20T11:43:13;97986.00;;;25.39;35.49
21824;BME280;11074;48.596;9.238;2023-07-20T11:45:39;97974.78;;;25.59;35.60
21824;BME280;11074;48.596;9.238;2023-07-20T11:48:05;97975.75;;;25.67;32.71
21824;BME280;11074;48.596;9.238;2023-07-20T11:50:31;97973.28;;;25.62;32.51
21824;BME280;11074;48.596;9.238;2023-07-20T11:52:57;97983.28;;;25.54;33.25
21824;BME280;11074;48.596;9.238;2023-07-20T11:55:23;97965.53;;;25.48;34.83
21824;BME280;11074;48.596;9.238;2023-07-20T11:58:06;97974.44;;;25.61;35.23
21824;BME280;11074;48.596;9.238;2023-07-20T12:00:38;97973.38;;;25.81;35.95
21824;BME280;11074;48.596;9.238;2023-07-20T12:03:06;97971.09;;;26.02;35.39
21824;BME280;11074;48.596;9.238;2023-07-20T12:05:33;97962.88;;;26.02;35.30
21824;BME280;11074;48.596;9.238;2023-07-20T12:07:59;97959.53;;;25.93;35.28
21824;BME280;11074;48.596;9.238;2023-07-20T12:10:27;97959.63;;;25.97;36.02
21824;BME280;11074;48.596;9.238;2023-07-20T12:12:54;97954.38;;;26.07;35.27
21824;BME280;11074;48.596;9.238;2023-07-20T12:15:26;97955.44;;;26.18;34.71
21824;BME280;11074;48.596;9.238;2023-07-20T12:17:57;97950.31;;;26.36;35.01
21824;BME280;11074;48.596;9.238;2023-07-20T12:20:34;97951.00;;;26.29;34.45
21824;BME280;11074;48.596;9.238;2023-07-20T12:23:12;97955.44;;;26.18;34.55
21824;BME280;11074;48.596;9.238;2023-07-20T12:25:46;97948.38;;;26.17;35.16
21824;BME280;11074;48.596;9.238;2023-07-20T12:28:16;97941.91;;;26.10;33.42
21824;BME280;11074;48.596;9.238;2023-07-20T12:30:44;97937.34;;;26.33;32.84
21824;BME280;11074;48.596;9.238;2023-07-20T12:33:10;97937.13;;;26.61;32.90
21824;BME280;11074;48.596;9.238;2023-07-20T12:35:37;97933.78;;;26.90;33.01
21824;BME280;11074;48.596;9.238;2023-07-20T12:38:03;97938.00;;;27.06;32.35
21824;BME280;11074;48.596;9.238;2023-07-20T12:40:29;97924.56;;;27.01;32.45
21824;BME280;11074;48.596;9.238;2023-07-20T12:42:55;97928.06;;;27.21;31.93
21824;BME280;11074;48.596;9.238;2023-07-20T12:45:21;97925.28;;;27.40;32.63
21824;BME280;11074;48.596;9.238;2023-07-20T12:47:47;97925.94;;;27.11;31.63
21824;BME280;11074;48.596;9.238;2023-07-20T12:50:13;97919.88;;;27.25;32.27
21824;BME280;11074;48.596;9.238;2023-07-20T12:52:40;97916.03;;;27.29;31.92
21824;BME280;11074;48.596;9.238;2023-07-20T12:55:08;97913.56;;;27.43;32.58
21824;BME280;11074;48.596;9.238;2023-07-20T12:57:36;97910.34;;;27.64;32.77
21824;BME280;11074;48.596;9.238;2023-07-20T13:00:08;97905.25;;;27.66;31.55
21824;BME280;11074;48.596;9.238;2023-07-20T13:02:35;97909.34;;;27.76;32.31
21824;BME280;11074;48.596;9.238;2023-07-20T13:05:02;97900.03;;;27.84;31.89
21824;BME280;11074;48.596;9.238;2023-07-20T13:07:38;97910.78;;;27.96;31.56
21824;BME280;11074;48.596;9.238;2023-07-20T13:10:05;97906.34;;;27.88;30.27
21824;BME280;11074;48.596;9.238;2023-07-20T13:12:33;97901.69;;;27.92;29.35
21824;BME280;11074;48.596;9.238;2023-07-20T13:15:01;97901.00;;;27.98;30.30
21824;BME280;11074;48.596;9.238;2023-07-20T13:17:28;97890.91;;;28.06;29.76
21824;BME280;11074;48.596;9.238;2023-07-20T13:19:54;97901.66;;;28.14;30.50
21824;BME280;11074;48.596;9.238;2023-07-20T13:22:20;97888.72;;;28.18;31.37
21824;BME280;11074;48.596;9.238;2023-07-20T13:24:46;97882.31;;;28.41;30.43